createdAt,value
2017-08-05T00:00:34.749Z,23.30
2017-08-05T00:03:02.591Z,23.30
2017-08-05T00:05:30.226Z,23.20
2017-08-05T00:07:57.994Z,23.20
2017-08-05T00:10:25.621Z,23.10
2017-08-05T00:12:53.249Z,23.00
2017-08-05T00:15:20.926Z,22.80
2017-08-05T00:17:48.672Z,22.70
2017-08-05T00:20:16.301Z,22.60
2017-08-05T00:22:44.064Z,22.60
2017-08-05T00:25:11.690Z,22.60
2017-08-05T00:27:39.322Z,22.50
2017-08-05T00:30:07.002Z,22.50
2017-08-05T00:32:34.634Z,22.50
2017-08-05T00:35:02.266Z,22.50
2017-08-05T00:37:29.941Z,22.50
2017-08-05T00:39:57.579Z,22.60
2017-08-05T00:42:25.214Z,22.60
2017-08-05T00:44:52.982Z,22.60
2017-08-05T00:47:20.610Z,22.60
2017-08-05T00:49:48.245Z,22.60
2017-08-05T00:52:16.010Z,22.60
2017-08-05T00:54:43.651Z,22.60
2017-08-05T00:57:11.292Z,22.60
2017-08-05T00:59:38.974Z,22.60
2017-08-05T01:02:06.993Z,22.60
2017-08-05T01:04:34.622Z,22.60
2017-08-05T01:07:02.335Z,22.60
2017-08-05T01:09:29.969Z,22.50
2017-08-05T01:11:58.089Z,22.30
2017-08-05T01:14:25.774Z,22.40
2017-08-05T01:16:53.406Z,22.30
2017-08-05T01:19:21.535Z,22.40
2017-08-05T01:21:49.218Z,22.40
2017-08-05T01:24:17.261Z,22.50
2017-08-05T01:26:45.306Z,22.50
2017-08-05T01:29:13.013Z,22.50
2017-08-05T01:31:40.663Z,22.50
2017-08-05T01:34:08.302Z,22.50
2017-08-05T01:36:36.072Z,22.40
2017-08-05T01:39:03.837Z,22.40
2017-08-05T01:41:31.569Z,22.50
2017-08-05T01:43:59.277Z,22.50
2017-08-05T01:46:26.962Z,22.50
2017-08-05T01:48:54.708Z,22.50
2017-08-05T01:51:22.467Z,22.50
2017-08-05T01:53:50.118Z,22.50
2017-08-05T01:56:17.773Z,22.50
2017-08-05T01:58:46.004Z,22.50
2017-08-05T02:01:13.717Z,22.50
2017-08-05T02:03:41.396Z,22.40
2017-08-05T02:06:09.244Z,22.40
2017-08-05T02:08:36.900Z,22.30
2017-08-05T02:11:04.540Z,22.00
2017-08-05T02:13:32.229Z,21.90
2017-08-05T02:15:59.858Z,21.90
2017-08-05T02:18:27.887Z,21.90
2017-08-05T02:20:55.577Z,21.90
2017-08-05T02:23:23.214Z,21.90
2017-08-05T02:25:50.850Z,21.80
2017-08-05T02:28:18.937Z,21.90
2017-08-05T02:30:46.598Z,21.90
2017-08-05T02:33:14.228Z,21.90
2017-08-05T02:35:42.009Z,21.90
2017-08-05T02:38:09.661Z,21.90
2017-08-05T02:40:37.395Z,21.80
2017-08-05T02:43:05.106Z,21.70
2017-08-05T02:45:32.753Z,21.70
2017-08-05T02:48:00.386Z,21.60
2017-08-05T02:50:28.083Z,21.60
2017-08-05T02:52:55.728Z,21.60
2017-08-05T02:55:23.475Z,21.50
2017-08-05T02:57:51.158Z,21.60
2017-08-05T03:00:19.276Z,21.60
2017-08-05T03:02:46.920Z,21.60
2017-08-05T03:05:14.668Z,21.60
2017-08-05T03:07:42.298Z,21.60
2017-08-05T03:10:09.957Z,21.60
2017-08-05T03:12:37.704Z,21.70
2017-08-05T03:15:05.347Z,21.70
2017-08-05T03:17:32.991Z,21.70
2017-08-05T03:20:00.667Z,21.70
2017-08-05T03:22:28.699Z,21.60
2017-08-05T03:24:56.335Z,21.60
2017-08-05T03:27:24.047Z,21.50
2017-08-05T03:29:51.678Z,21.50
2017-08-05T03:32:19.376Z,21.50
2017-08-05T03:34:47.061Z,21.50
2017-08-05T03:37:15.178Z,21.50
2017-08-05T03:39:42.823Z,21.50
2017-08-05T03:42:10.511Z,21.50
2017-08-05T03:44:38.146Z,21.50
2017-08-05T03:47:06.178Z,21.60
2017-08-05T03:49:33.853Z,21.60
2017-08-05T03:52:01.969Z,21.50
2017-08-05T03:54:29.606Z,21.50
2017-08-05T03:56:57.366Z,21.40
2017-08-05T03:59:25.003Z,21.40
2017-08-05T04:01:52.651Z,21.30
2017-08-05T04:04:20.333Z,21.40
2017-08-05T04:06:48.363Z,21.30
2017-08-05T04:09:16.097Z,21.30
2017-08-05T04:11:43.788Z,21.20
2017-08-05T04:14:11.417Z,21.20
2017-08-05T04:16:39.544Z,21.10
2017-08-05T04:19:07.218Z,21.10
2017-08-05T04:21:35.286Z,21.20
2017-08-05T04:24:02.921Z,21.20
2017-08-05T04:26:30.638Z,21.20
2017-08-05T04:28:58.275Z,21.20
2017-08-05T04:31:25.953Z,21.10
2017-08-05T04:33:53.674Z,21.10
2017-08-05T04:36:21.306Z,21.00
2017-08-05T04:38:48.942Z,21.00
2017-08-05T04:41:16.626Z,21.00
2017-08-05T04:43:44.270Z,21.00
2017-08-05T04:46:11.999Z,21.10
2017-08-05T04:48:39.747Z,21.10
2017-08-05T04:51:07.495Z,21.00
2017-08-05T04:53:35.263Z,21.00
2017-08-05T04:56:12.139Z,21.00
2017-08-05T04:58:39.778Z,21.10
2017-08-05T05:01:07.903Z,21.30
2017-08-05T05:03:35.614Z,21.30
2017-08-05T05:06:03.605Z,21.30
2017-08-05T05:08:31.250Z,21.30
2017-08-05T05:10:58.938Z,21.20
2017-08-05T05:13:26.574Z,21.30
2017-08-05T05:15:54.698Z,21.60
2017-08-05T05:18:22.393Z,21.70
2017-08-05T05:20:50.087Z,22.00
2017-08-05T05:23:17.731Z,22.40
2017-08-05T05:25:45.581Z,22.70
2017-08-05T05:28:13.328Z,23.00
2017-08-05T05:30:40.962Z,23.10
2017-08-05T05:33:08.651Z,23.30
2017-08-05T05:35:36.674Z,23.60
2017-08-05T05:38:04.316Z,23.60
2017-08-05T05:40:32.095Z,23.70
2017-08-05T05:43:00.126Z,23.70
2017-08-05T05:45:27.754Z,23.70
2017-08-05T05:47:55.516Z,23.70
2017-08-05T05:50:23.145Z,23.90
2017-08-05T05:52:50.903Z,24.00
2017-08-05T05:55:18.653Z,24.00
2017-08-05T05:57:46.622Z,24.10
2017-08-05T06:00:14.349Z,24.10
2017-08-05T06:02:42.097Z,24.00
2017-08-05T06:05:09.741Z,24.00
2017-08-05T06:07:37.374Z,24.10
2017-08-05T06:10:05.063Z,24.20
2017-08-05T06:12:33.106Z,24.30
2017-08-05T06:15:01.137Z,24.50
2017-08-05T06:17:28.890Z,24.50
2017-08-05T06:19:56.668Z,24.70
2017-08-05T06:22:24.698Z,24.90
2017-08-05T06:24:52.440Z,24.90
2017-08-05T06:27:20.087Z,24.90
2017-08-05T06:29:47.725Z,24.90
2017-08-05T06:32:15.412Z,25.00
2017-08-05T06:34:43.434Z,25.50
2017-08-05T06:37:11.074Z,25.50
2017-08-05T06:39:38.761Z,25.70
2017-08-05T06:42:06.394Z,25.70
2017-08-05T06:44:34.111Z,25.80
2017-08-05T06:47:01.856Z,25.90
2017-08-05T06:49:29.490Z,25.90
2017-08-05T06:51:57.122Z,25.90
2017-08-05T06:54:24.810Z,25.90
2017-08-05T06:56:52.447Z,26.10
2017-08-05T06:59:20.184Z,26.10
2017-08-05T07:01:47.966Z,26.20
2017-08-05T07:04:16.086Z,26.40
2017-08-05T07:06:43.731Z,26.40
2017-08-05T07:09:11.411Z,26.30
2017-08-05T07:11:39.441Z,26.40
2017-08-05T07:14:07.081Z,26.40
2017-08-05T07:16:34.759Z,26.60
2017-08-05T07:19:02.792Z,26.80
2017-08-05T07:21:30.447Z,26.80
2017-08-05T07:23:58.526Z,27.30
2017-08-05T07:26:26.223Z,27.30
2017-08-05T07:28:53.855Z,27.20
2017-08-05T07:31:21.549Z,26.60
2017-08-05T07:33:49.191Z,26.40
2017-08-05T07:36:16.821Z,26.20
2017-08-05T07:38:44.530Z,26.30
2017-08-05T07:41:12.155Z,26.20
2017-08-05T07:43:39.792Z,26.40
2017-08-05T07:46:07.479Z,26.30
2017-08-05T07:48:35.118Z,26.40
2017-08-05T07:51:02.777Z,26.40
2017-08-05T07:53:30.471Z,26.60
2017-08-05T07:55:58.111Z,26.70
2017-08-05T07:58:25.758Z,26.90
2017-08-05T08:00:53.456Z,26.70
2017-08-05T08:03:21.100Z,27.10
2017-08-05T08:05:48.848Z,27.30
2017-08-05T08:08:16.538Z,27.30
2017-08-05T08:10:44.161Z,27.00
2017-08-05T08:13:12.194Z,26.30
2017-08-05T08:15:39.874Z,26.30
2017-08-05T08:18:07.583Z,26.20
2017-08-05T08:20:35.211Z,26.20
2017-08-05T08:23:02.979Z,26.30
2017-08-05T08:25:30.623Z,26.80
2017-08-05T08:27:58.266Z,27.00
2017-08-05T08:30:25.947Z,27.30
2017-08-05T08:32:53.977Z,27.90
2017-08-05T08:35:21.615Z,27.90
2017-08-05T08:37:49.298Z,27.40
2017-08-05T08:40:17.003Z,27.20
2017-08-05T08:42:44.629Z,27.20
2017-08-05T08:45:12.310Z,27.40
2017-08-05T08:47:39.947Z,27.70
2017-08-05T08:50:07.579Z,28.10
2017-08-05T08:52:35.430Z,28.10
2017-08-05T08:55:03.061Z,27.80
2017-08-05T08:57:30.692Z,27.70
2017-08-05T08:59:58.377Z,27.70
2017-08-05T09:02:26.006Z,27.50
2017-08-05T09:04:53.654Z,27.50
2017-08-05T09:07:21.363Z,27.70
2017-08-05T09:09:48.999Z,28.00
2017-08-05T09:12:16.693Z,28.10
2017-08-05T09:14:44.440Z,28.40
2017-08-05T09:17:12.078Z,28.60
2017-08-05T09:19:39.730Z,28.30
2017-08-05T09:22:07.434Z,27.80
2017-08-05T09:24:35.078Z,27.60
2017-08-05T09:27:02.714Z,27.80
2017-08-05T09:29:30.446Z,28.00
2017-08-05T09:31:58.477Z,28.60
2017-08-05T09:34:26.124Z,28.60
2017-08-05T09:36:53.839Z,28.70
2017-08-05T09:39:21.490Z,28.60
2017-08-05T09:41:49.121Z,28.80
2017-08-05T09:44:16.813Z,29.00
2017-08-05T09:46:44.541Z,29.10
2017-08-05T09:49:12.287Z,29.10
2017-08-05T09:51:40.036Z,29.30
2017-08-05T09:54:07.674Z,29.20
2017-08-05T09:56:35.401Z,29.30
2017-08-05T09:59:03.102Z,29.30
2017-08-05T10:01:30.730Z,29.10
2017-08-05T10:03:58.366Z,29.20
2017-08-05T10:06:26.063Z,29.50
2017-08-05T10:08:53.703Z,29.70
2017-08-05T10:11:21.334Z,29.80
2017-08-05T10:13:49.147Z,29.80
2017-08-05T10:16:16.782Z,29.70
2017-08-05T10:18:44.422Z,29.60
2017-08-05T10:21:12.128Z,29.30
2017-08-05T10:23:39.829Z,29.30
2017-08-05T10:26:07.574Z,29.40
2017-08-05T10:28:35.425Z,29.60
2017-08-05T10:31:03.072Z,29.70
2017-08-05T10:33:30.708Z,29.80
2017-08-05T10:35:58.463Z,29.70
2017-08-05T10:38:26.089Z,29.80
2017-08-05T10:40:53.772Z,29.90
2017-08-05T10:43:21.870Z,30.10
2017-08-05T10:45:49.497Z,30.10
2017-08-05T10:48:17.199Z,30.40
2017-08-05T10:50:44.946Z,30.60
2017-08-05T10:53:12.586Z,30.70
2017-08-05T10:55:40.217Z,30.70
2017-08-05T10:58:07.896Z,30.60
2017-08-05T11:00:35.541Z,30.50
2017-08-05T11:03:03.342Z,30.70
2017-08-05T11:05:31.124Z,30.80
2017-08-05T11:07:58.761Z,30.70
2017-08-05T11:10:26.403Z,30.70
2017-08-05T11:12:54.106Z,30.50
2017-08-05T11:15:21.743Z,30.70
2017-08-05T11:17:49.449Z,30.80
2017-08-05T11:20:17.157Z,30.80
2017-08-05T11:22:44.841Z,30.60
2017-08-05T11:25:12.491Z,30.60
2017-08-05T11:27:40.233Z,30.50
2017-08-05T11:30:07.886Z,30.40
2017-08-05T11:32:35.522Z,30.20
2017-08-05T11:35:03.243Z,30.10
2017-08-05T11:37:30.873Z,29.60
2017-08-05T11:39:58.548Z,29.30
2017-08-05T11:42:26.310Z,29.70
2017-08-05T11:44:53.952Z,30.00
2017-08-05T11:47:21.586Z,30.30
2017-08-05T11:49:49.271Z,30.70
2017-08-05T11:52:17.303Z,31.10
2017-08-05T11:54:45.044Z,31.10
2017-08-05T11:57:12.791Z,31.20
2017-08-05T11:59:40.435Z,31.00
2017-08-05T12:02:08.079Z,31.00
2017-08-05T12:04:35.758Z,31.00
2017-08-05T12:07:03.799Z,30.90
2017-08-05T12:09:31.832Z,30.20
2017-08-05T12:11:59.518Z,30.20
2017-08-05T12:14:27.637Z,30.00
2017-08-05T12:16:55.279Z,30.00
2017-08-05T12:19:23.029Z,30.30
2017-08-05T12:21:50.667Z,30.40
2017-08-05T12:24:18.297Z,30.20
2017-08-05T12:26:46.078Z,30.00
2017-08-05T12:29:13.814Z,29.80
2017-08-05T12:31:41.457Z,29.70
2017-08-05T12:34:09.235Z,29.50
2017-08-05T12:36:37.361Z,29.40
2017-08-05T12:39:05.213Z,29.40
2017-08-05T12:41:32.890Z,29.70
2017-08-05T12:44:00.923Z,29.90
2017-08-05T12:46:28.659Z,29.90
2017-08-05T12:48:56.406Z,30.20
2017-08-05T12:51:24.049Z,30.50
2017-08-05T12:53:51.682Z,30.60
2017-08-05T12:56:19.359Z,30.50
2017-08-05T12:58:47.088Z,30.40
2017-08-05T13:01:14.721Z,30.60
2017-08-05T13:03:42.418Z,31.00
2017-08-05T13:06:10.097Z,31.10
2017-08-05T13:08:38.175Z,31.00
2017-08-05T13:11:05.850Z,30.90
2017-08-05T13:13:33.982Z,30.40
2017-08-05T13:16:01.749Z,30.40
2017-08-05T13:18:29.450Z,30.40
2017-08-05T13:20:57.121Z,30.40
2017-08-05T13:23:24.763Z,30.40
2017-08-05T13:25:52.513Z,30.40
2017-08-05T13:28:20.158Z,30.40
2017-08-05T13:30:47.905Z,30.50
2017-08-05T13:33:15.594Z,30.50
2017-08-05T13:35:43.234Z,30.40
2017-08-05T13:38:10.869Z,30.70
2017-08-05T13:40:38.590Z,30.60
2017-08-05T13:43:06.332Z,30.60
2017-08-05T13:45:33.980Z,30.70
2017-08-05T13:48:01.727Z,30.60
2017-08-05T13:50:29.358Z,30.50
2017-08-05T13:52:56.991Z,30.20
2017-08-05T13:55:24.764Z,30.20
2017-08-05T13:57:52.418Z,30.30
2017-08-05T14:00:20.046Z,30.20
2017-08-05T14:02:47.902Z,30.10
2017-08-05T14:05:15.546Z,29.70
2017-08-05T14:07:43.193Z,29.80
2017-08-05T14:10:10.872Z,30.00
2017-08-05T14:12:38.582Z,30.10
2017-08-05T14:15:06.331Z,30.00
2017-08-05T14:17:34.083Z,29.80
2017-08-05T14:20:01.830Z,29.60
2017-08-05T14:22:29.472Z,29.50
2017-08-05T14:24:57.224Z,29.50
2017-08-05T14:27:24.967Z,29.50
2017-08-05T14:29:52.597Z,29.30
2017-08-05T14:32:20.286Z,29.20
2017-08-05T14:34:48.412Z,29.20
2017-08-05T14:37:16.056Z,29.10
2017-08-05T14:39:43.804Z,29.20
2017-08-05T14:42:11.448Z,29.10
2017-08-05T14:44:39.197Z,29.00
2017-08-05T14:47:06.942Z,29.10
2017-08-05T14:49:34.589Z,29.20
2017-08-05T14:52:02.236Z,29.50
2017-08-05T14:54:29.982Z,29.80
2017-08-05T14:56:57.611Z,30.30
2017-08-05T14:59:25.248Z,30.60
2017-08-05T15:01:52.950Z,30.80
2017-08-05T15:04:21.073Z,30.80
2017-08-05T15:06:48.717Z,30.80
2017-08-05T15:09:16.414Z,30.90
2017-08-05T15:11:44.066Z,31.00
2017-08-05T15:14:11.753Z,30.80
2017-08-05T15:16:39.500Z,30.60
2017-08-05T15:19:07.144Z,30.30
2017-08-05T15:21:34.770Z,30.30
2017-08-05T15:24:02.506Z,30.10
2017-08-05T15:26:30.185Z,30.00
2017-08-05T15:28:57.828Z,29.80
2017-08-05T15:31:25.576Z,29.70
2017-08-05T15:33:53.225Z,29.70
2017-08-05T15:36:20.968Z,29.70
2017-08-05T15:38:48.660Z,29.60
2017-08-05T15:41:16.360Z,29.30
2017-08-05T15:43:44.006Z,29.40
2017-08-05T15:46:11.683Z,29.60
2017-08-05T15:48:39.707Z,29.80
2017-08-05T15:51:07.334Z,29.80
2017-08-05T15:53:35.200Z,29.60
2017-08-05T15:56:02.838Z,29.60
2017-08-05T15:58:30.490Z,29.50
2017-08-05T16:00:58.267Z,29.20
2017-08-05T16:03:26.398Z,29.20
2017-08-05T16:05:54.030Z,29.20
2017-08-05T16:08:21.788Z,29.30
2017-08-05T16:10:49.422Z,29.40
2017-08-05T16:13:17.076Z,29.30
2017-08-05T16:15:44.822Z,29.20
2017-08-05T16:18:12.459Z,29.10
2017-08-05T16:20:40.213Z,28.80
2017-08-05T16:23:07.895Z,28.70
2017-08-05T16:25:35.529Z,28.70
2017-08-05T16:28:03.662Z,28.90
2017-08-05T16:30:31.349Z,28.90
2017-08-05T16:32:58.983Z,28.80
2017-08-05T16:35:27.021Z,28.60
2017-08-05T16:37:54.752Z,28.60
2017-08-05T16:40:22.382Z,28.60
2017-08-05T16:42:50.021Z,28.60
2017-08-05T16:45:17.789Z,28.70
2017-08-05T16:47:45.421Z,28.70
2017-08-05T16:50:13.078Z,28.70
2017-08-05T16:52:40.826Z,28.70
2017-08-05T16:55:08.469Z,28.70
2017-08-05T16:57:36.102Z,28.60
2017-08-05T17:00:03.810Z,28.70
2017-08-05T17:02:31.445Z,28.70
2017-08-05T17:04:59.474Z,28.60
2017-08-05T17:07:27.208Z,28.60
2017-08-05T17:09:54.852Z,28.50
2017-08-05T17:12:22.485Z,28.50
2017-08-05T17:14:50.244Z,28.50
2017-08-05T17:17:17.888Z,28.50
2017-08-05T17:19:45.519Z,28.50
2017-08-05T17:22:13.281Z,28.50
2017-08-05T17:24:40.918Z,28.50
2017-08-05T17:27:08.569Z,28.40
2017-08-05T17:29:36.419Z,28.40
2017-08-05T17:32:04.063Z,28.40
2017-08-05T17:34:31.711Z,28.40
2017-08-05T17:36:59.562Z,28.30
2017-08-05T17:39:27.206Z,28.30
2017-08-05T17:41:54.952Z,28.20
2017-08-05T17:44:22.630Z,28.20
2017-08-05T17:46:50.758Z,28.10
2017-08-05T17:49:18.390Z,28.10
2017-08-05T17:51:46.078Z,28.10
2017-08-05T17:54:14.200Z,27.90
2017-08-05T17:56:41.948Z,27.90
2017-08-05T17:59:09.649Z,27.90
2017-08-05T18:01:37.293Z,27.90
2017-08-05T18:04:05.803Z,27.80
2017-08-05T18:06:33.553Z,27.70
2017-08-05T18:09:01.181Z,27.60
2017-08-05T18:11:28.858Z,27.40
2017-08-05T18:13:56.589Z,27.40
2017-08-05T18:16:24.342Z,27.30
2017-08-05T18:18:52.003Z,27.30
2017-08-05T18:21:20.232Z,27.10
2017-08-05T18:23:48.089Z,27.10
2017-08-05T18:26:15.837Z,27.00
2017-08-05T18:28:44.095Z,26.80
2017-08-05T18:31:11.945Z,26.80
2017-08-05T18:33:39.693Z,26.80
2017-08-05T18:36:07.482Z,26.80
2017-08-05T18:38:35.158Z,26.80
2017-08-05T18:41:02.834Z,26.70
2017-08-05T18:43:30.684Z,26.60
2017-08-05T18:45:58.430Z,26.70
2017-08-05T18:48:26.280Z,26.60
2017-08-05T18:50:54.205Z,26.60
2017-08-05T18:53:21.850Z,26.50
2017-08-05T18:55:49.598Z,26.50
2017-08-05T18:58:17.474Z,26.50
2017-08-05T19:00:45.628Z,26.50
2017-08-05T19:03:13.273Z,26.50
2017-08-05T19:05:41.022Z,26.40
2017-08-05T19:08:08.768Z,26.50
2017-08-05T19:10:36.435Z,26.50
2017-08-05T19:13:04.260Z,26.30
2017-08-05T19:15:32.013Z,26.20
2017-08-05T19:17:59.759Z,26.20
2017-08-05T19:20:27.453Z,26.20
2017-08-05T19:22:55.150Z,26.10
2017-08-05T19:25:22.819Z,25.90
2017-08-05T19:27:50.934Z,25.00
2017-08-05T19:30:18.802Z,25.00
2017-08-05T19:32:46.572Z,24.60
2017-08-05T19:35:14.778Z,24.20
2017-08-05T19:37:42.555Z,24.20
2017-08-05T19:40:10.308Z,24.20
2017-08-05T19:42:38.154Z,24.30
2017-08-05T19:45:05.865Z,24.40
2017-08-05T19:47:33.649Z,24.40
2017-08-05T19:50:02.934Z,24.60
2017-08-05T19:52:30.784Z,24.60
2017-08-05T19:54:58.630Z,24.70
2017-08-05T19:57:26.318Z,24.80
2017-08-05T19:59:54.054Z,24.70
2017-08-05T20:02:22.385Z,22.40
2017-08-05T20:04:50.070Z,22.50
2017-08-05T20:07:17.775Z,21.80
2017-08-05T20:09:45.626Z,21.40
2017-08-05T20:12:13.375Z,21.30
2017-08-05T20:14:41.008Z,21.20
2017-08-05T20:17:08.763Z,21.10
2017-08-05T20:19:36.613Z,21.30
2017-08-05T20:22:04.875Z,21.40
2017-08-05T20:24:32.829Z,21.40
2017-08-05T20:27:00.677Z,21.40
2017-08-05T20:29:28.302Z,21.40
2017-08-05T20:31:55.941Z,21.50
2017-08-05T20:34:23.712Z,21.70
2017-08-05T20:36:51.476Z,21.70
2017-08-05T20:39:19.158Z,21.80
2017-08-05T20:41:46.833Z,21.70
2017-08-05T20:44:14.458Z,21.80
2017-08-05T20:46:42.106Z,21.70
2017-08-05T20:49:09.989Z,21.70
2017-08-05T20:51:37.623Z,21.80
2017-08-05T20:54:05.276Z,21.80
2017-08-05T20:56:32.950Z,21.80
2017-08-05T20:59:00.970Z,21.80
2017-08-05T21:01:28.602Z,21.90
2017-08-05T21:03:56.373Z,21.70
2017-08-05T21:06:24.015Z,21.60
2017-08-05T21:08:51.660Z,21.60
2017-08-05T21:11:19.409Z,21.50
2017-08-05T21:13:47.155Z,21.50
2017-08-05T21:16:14.781Z,21.50
2017-08-05T21:18:42.547Z,21.50
2017-08-05T21:21:10.191Z,21.60
2017-08-05T21:26:11.932Z,21.70
2017-08-05T21:28:39.586Z,21.80
2017-08-05T21:31:07.223Z,21.70
2017-08-05T21:33:34.973Z,21.60
2017-08-05T21:36:02.719Z,21.60
2017-08-05T21:38:30.363Z,21.60
2017-08-05T21:40:58.316Z,21.60
2017-08-05T21:43:26.477Z,21.60
2017-08-05T21:45:54.121Z,21.60
2017-08-05T21:48:21.863Z,21.50
2017-08-05T21:50:49.497Z,21.30
2017-08-05T21:53:17.122Z,21.30
2017-08-05T21:55:45.002Z,21.30
2017-08-05T21:58:12.645Z,21.30
2017-08-05T22:00:40.314Z,21.40
2017-08-05T22:03:08.551Z,21.50
2017-08-05T22:05:36.297Z,21.50
2017-08-05T22:08:03.942Z,21.50
2017-08-05T22:10:31.795Z,21.50
2017-08-05T22:12:59.423Z,21.50
2017-08-05T22:15:27.084Z,21.40
2017-08-05T22:17:54.836Z,21.40
2017-08-05T22:20:22.474Z,21.30
2017-08-05T22:22:50.110Z,21.30
2017-08-05T22:25:17.868Z,21.40
2017-08-05T22:27:45.502Z,21.50
2017-08-05T22:30:13.156Z,21.40
2017-08-05T22:32:40.903Z,21.30
2017-08-05T22:35:08.547Z,21.20
2017-08-05T22:37:36.177Z,21.10
2017-08-05T22:40:03.867Z,21.00
2017-08-05T22:42:31.498Z,20.90
2017-08-05T22:44:59.132Z,20.80
2017-08-05T22:47:26.878Z,20.90
2017-08-05T22:49:54.506Z,21.00
2017-08-05T22:52:22.165Z,21.00
2017-08-05T22:54:49.854Z,20.90
2017-08-05T22:57:17.485Z,20.90
2017-08-05T22:59:45.514Z,21.00
2017-08-05T23:02:13.233Z,21.00
2017-08-05T23:04:40.902Z,21.00
2017-08-05T23:07:08.545Z,20.90
2017-08-05T23:09:36.315Z,20.90
2017-08-05T23:12:04.044Z,20.90
2017-08-05T23:14:31.687Z,20.80
2017-08-05T23:16:59.366Z,20.80
2017-08-05T23:19:27.391Z,20.40
2017-08-05T23:21:55.134Z,20.40
2017-08-05T23:24:22.882Z,20.30
2017-08-05T23:26:50.513Z,20.10
2017-08-05T23:29:18.150Z,20.00
2017-08-05T23:31:45.917Z,20.10
2017-08-05T23:34:13.665Z,20.10
2017-08-05T23:36:41.309Z,20.10
2017-08-05T23:39:08.987Z,20.10
2017-08-05T23:41:36.700Z,20.30
2017-08-05T23:44:04.329Z,20.30
2017-08-05T23:46:32.197Z,20.20
2017-08-05T23:48:59.945Z,20.20
2017-08-05T23:51:27.582Z,20.20
2017-08-05T23:53:55.337Z,20.20
2017-08-05T23:56:22.957Z,20.20
2017-08-05T23:58:50.581Z,20.30
